sensor_id;sensor_type;location;lat;lon;timestamp;pressure;altitude;pressure_sealevel;temperature;humidity
24031;BME280;12240;51.142;22.486;2023-05-29T00:01:58;99694.78;;;8.27;100.00
24031;BME280;12240;51.142;22.486;2023-05-29T00:04:26;99695.56;;;8.18;100.00
24031;BME280;12240;51.142;22.486;2023-05-29T00:06:54;99700.91;;;8.07;100.00
24031;BME280;12240;51.142;22.486;2023-05-29T00:09:23;99698.25;;;8.07;100.00
24031;BME280;12240;51.142;22.486;2023-05-29T00:11:53;99703.59;;;7.96;100.00
24031;BME280;12240;51.142;22.486;2023-05-29T00:14:21;99699.28;;;7.95;100.00
24031;BME280;12240;51.142;22.486;2023-05-29T00:16:51;99700.50;;;7.91;100.00
24031;BME280;12240;51.142;22.486;2023-05-29T00:19:20;99698.81;;;7.90;100.00
24031;BME280;12240;51.142;22.486;2023-05-29T00:21:49;99691.13;;;7.87;100.00
24031;BME280;12240;51.142;22.486;2023-05-29T00:24:18;99693.34;;;7.82;100.00
24031;BME280;12240;51.142;22.486;2023-05-29T00:26:47;99683.41;;;7.84;100.00
24031;BME280;12240;51.142;22.486;2023-05-29T00:29:16;99688.53;;;7.76;100.00
24031;BME280;12240;51.142;22.486;2023-05-29T00:32:12;99683.94;;;7.78;100.00
24031;BME280;12240;51.142;22.486;2023-05-29T00:34:40;99692.22;;;7.85;100.00
24031;BME280;12240;51.142;22.486;2023-05-29T00:37:08;99686.53;;;7.89;100.00
24031;BME280;12240;51.142;22.486;2023-05-29T00:39:37;99693.53;;;7.90;100.00
24031;BME280;12240;51.142;22.486;2023-05-29T00:42:05;99694.25;;;7.92;100.00
24031;BME280;12240;51.142;22.486;2023-05-29T00:44:34;99701.94;;;7.95;100.00
24031;BME280;12240;51.142;22.486;2023-05-29T00:47:04;99690.78;;;7.81;100.00
24031;BME280;12240;51.142;22.486;2023-05-29T00:49:36;99689.16;;;7.69;100.00
24031;BME280;12240;51.142;22.486;2023-05-29T00:52:07;99690.84;;;7.70;100.00
24031;BME280;12240;51.142;22.486;2023-05-29T00:54:37;99688.81;;;7.62;100.00
24031;BME280;12240;51.142;22.486;2023-05-29T00:57:06;99682.34;;;7.55;100.00
24031;BME280;12240;51.142;22.486;2023-05-29T00:59:34;99686.09;;;7.53;100.00
24031;BME280;12240;51.142;22.486;2023-05-29T01:02:03;99682.84;;;7.49;100.00
24031;BME280;12240;51.142;22.486;2023-05-29T01:04:32;99687.03;;;7.52;100.00
24031;BME280;12240;51.142;22.486;2023-05-29T01:07:03;99687.41;;;7.58;100.00
24031;BME280;12240;51.142;22.486;2023-05-29T01:09:32;99682.66;;;7.41;100.00
24031;BME280;12240;51.142;22.486;2023-05-29T01:24:26;99687.75;;;7.11;100.00
24031;BME280;12240;51.142;22.486;2023-05-29T01:27:21;99691.47;;;7.08;100.00
24031;BME280;12240;51.142;22.486;2023-05-29T01:29:55;99675.03;;;7.05;100.00
24031;BME280;12240;51.142;22.486;2023-05-29T01:32:25;99683.44;;;6.99;100.00
24031;BME280;12240;51.142;22.486;2023-05-29T01:34:54;99682.47;;;7.00;100.00
24031;BME280;12240;51.142;22.486;2023-05-29T01:37:22;99681.91;;;6.96;100.00
24031;BME280;12240;51.142;22.486;2023-05-29T01:39:50;99675.03;;;6.94;100.00
24031;BME280;12240;51.142;22.486;2023-05-29T01:42:18;99680.34;;;6.94;100.00
24031;BME280;12240;51.142;22.486;2023-05-29T01:44:47;99677.22;;;6.89;100.00
24031;BME280;12240;51.142;22.486;2023-05-29T01:47:16;99684.44;;;6.87;100.00
24031;BME280;12240;51.142;22.486;2023-05-29T01:49:45;99677.00;;;6.81;100.00
24031;BME280;12240;51.142;22.486;2023-05-29T01:52:15;99672.88;;;6.77;100.00
24031;BME280;12240;51.142;22.486;2023-05-29T01:54:44;99669.06;;;6.81;100.00
24031;BME280;12240;51.142;22.486;2023-05-29T01:57:13;99679.13;;;6.87;100.00
24031;BME280;12240;51.142;22.486;2023-05-29T01:59:41;99673.38;;;6.93;100.00
24031;BME280;12240;51.142;22.486;2023-05-29T02:02:09;99668.78;;;6.84;100.00
24031;BME280;12240;51.142;22.486;2023-05-29T02:04:39;99668.53;;;6.87;100.00
24031;BME280;12240;51.142;22.486;2023-05-29T02:07:07;99668.19;;;6.80;100.00
24031;BME280;12240;51.142;22.486;2023-05-29T02:09:36;99663.50;;;6.73;100.00
24031;BME280;12240;51.142;22.486;2023-05-29T02:12:04;99665.06;;;6.64;100.00
24031;BME280;12240;51.142;22.486;2023-05-29T02:14:34;99666.41;;;6.70;100.00
24031;BME280;12240;51.142;22.486;2023-05-29T02:17:02;99655.81;;;6.70;100.00
24031;BME280;12240;51.142;22.486;2023-05-29T02:19:30;99662.28;;;6.66;100.00
24031;BME280;12240;51.142;22.486;2023-05-29T02:22:00;99663.16;;;6.66;100.00
24031;BME280;12240;51.142;22.486;2023-05-29T02:24:29;99655.81;;;6.70;100.00
24031;BME280;12240;51.142;22.486;2023-05-29T02:26:57;99656.19;;;6.65;100.00
24031;BME280;12240;51.142;22.486;2023-05-29T02:29:26;99659.41;;;6.58;100.00
24031;BME280;12240;51.142;22.486;2023-05-29T02:31:55;99656.66;;;6.48;100.00
24031;BME280;12240;51.142;22.486;2023-05-29T02:34:23;99656.88;;;6.45;100.00
24031;BME280;12240;51.142;22.486;2023-05-29T02:36:52;99654.63;;;6.41;100.00
24031;BME280;12240;51.142;22.486;2023-05-29T02:39:21;99648.72;;;6.37;100.00
24031;BME280;12240;51.142;22.486;2023-05-29T02:41:49;99643.81;;;6.33;100.00
24031;BME280;12240;51.142;22.486;2023-05-29T02:44:17;99650.03;;;6.32;100.00
24031;BME280;12240;51.142;22.486;2023-05-29T02:46:45;99644.88;;;6.30;100.00
24031;BME280;12240;51.142;22.486;2023-05-29T02:49:13;99649.78;;;6.35;100.00
24031;BME280;12240;51.142;22.486;2023-05-29T02:51:41;99648.72;;;6.37;100.00
24031;BME280;12240;51.142;22.486;2023-05-29T02:54:09;99652.31;;;6.47;100.00
24031;BME280;12240;51.142;22.486;2023-05-29T02:56:41;99654.59;;;6.63;100.00
24031;BME280;12240;51.142;22.486;2023-05-29T02:59:09;99652.19;;;6.71;100.00
24031;BME280;12240;51.142;22.486;2023-05-29T03:01:37;99665.31;;;6.72;100.00
24031;BME280;12240;51.142;22.486;2023-05-29T03:04:05;99654.63;;;6.74;100.00
24031;BME280;12240;51.142;22.486;2023-05-29T03:06:34;99658.34;;;6.82;100.00
24031;BME280;12240;51.142;22.486;2023-05-29T03:09:03;99656.03;;;6.78;100.00
24031;BME280;12240;51.142;22.486;2023-05-29T03:11:32;99653.16;;;6.81;100.00
24031;BME280;12240;51.142;22.486;2023-05-29T03:14:02;99661.06;;;6.92;100.00
24031;BME280;12240;51.142;22.486;2023-05-29T03:16:30;99660.47;;;6.99;100.00
24031;BME280;12240;51.142;22.486;2023-05-29T03:18:59;99662.28;;;6.99;100.00
24031;BME280;12240;51.142;22.486;2023-05-29T03:21:28;99654.59;;;6.96;100.00
24031;BME280;12240;51.142;22.486;2023-05-29T03:23:56;99655.31;;;6.98;100.00
24031;BME280;12240;51.142;22.486;2023-05-29T03:26:25;99660.34;;;7.01;100.00
24031;BME280;12240;51.142;22.486;2023-05-29T03:28:54;99661.69;;;6.95;100.00
24031;BME280;12240;51.142;22.486;2023-05-29T03:31:23;99660.81;;;6.95;100.00
24031;BME280;12240;51.142;22.486;2023-05-29T03:33:51;99663.47;;;7.06;100.00
24031;BME280;12240;51.142;22.486;2023-05-29T03:36:22;99661.03;;;7.14;100.00
24031;BME280;12240;51.142;22.486;2023-05-29T03:38:50;99661.16;;;7.24;100.00
24031;BME280;12240;51.142;22.486;2023-05-29T03:41:20;99663.16;;;7.31;100.00
24031;BME280;12240;51.142;22.486;2023-05-29T03:43:51;99654.91;;;7.45;100.00
24031;BME280;12240;51.142;22.486;2023-05-29T03:46:21;99656.09;;;7.52;100.00
24031;BME280;12240;51.142;22.486;2023-05-29T03:48:50;99657.88;;;7.63;100.00
24031;BME280;12240;51.142;22.486;2023-05-29T03:51:18;99653.88;;;7.68;100.00
24031;BME280;12240;51.142;22.486;2023-05-29T03:53:49;99655.75;;;7.77;100.00
24031;BME280;12240;51.142;22.486;2023-05-29T03:56:18;99660.38;;;7.96;100.00
24031;BME280;12240;51.142;22.486;2023-05-29T03:58:47;99656.09;;;8.04;100.00
24031;BME280;12240;51.142;22.486;2023-05-29T04:01:16;99654.59;;;8.11;100.00
24031;BME280;12240;51.142;22.486;2023-05-29T04:03:44;99665.03;;;8.24;100.00
24031;BME280;12240;51.142;22.486;2023-05-29T04:06:17;99673.22;;;8.42;100.00
24031;BME280;12240;51.142;22.486;2023-05-29T04:08:46;99669.97;;;8.59;100.00
24031;BME280;12240;51.142;22.486;2023-05-29T04:11:14;99659.72;;;8.84;100.00
24031;BME280;12240;51.142;22.486;2023-05-29T04:13:42;99665.28;;;9.30;100.00
24031;BME280;12240;51.142;22.486;2023-05-29T04:16:11;99663.53;;;9.69;100.00
24031;BME280;12240;51.142;22.486;2023-05-29T04:18:39;99650.34;;;9.96;100.00
24031;BME280;12240;51.142;22.486;2023-05-29T04:21:08;99655.94;;;10.31;100.00
24031;BME280;12240;51.142;22.486;2023-05-29T04:23:37;99651.50;;;10.49;100.00
24031;BME280;12240;51.142;22.486;2023-05-29T04:26:05;99654.88;;;10.88;100.00
24031;BME280;12240;51.142;22.486;2023-05-29T04:28:36;99639.06;;;11.31;100.00
24031;BME280;12240;51.142;22.486;2023-05-29T04:31:06;99640.22;;;11.46;100.00
24031;BME280;12240;51.142;22.486;2023-05-29T04:33:36;99628.41;;;11.84;100.00
24031;BME280;12240;51.142;22.486;2023-05-29T04:36:06;99623.66;;;11.96;100.00
24031;BME280;12240;51.142;22.486;2023-05-29T04:38:39;99632.66;;;12.12;100.00
24031;BME280;12240;51.142;22.486;2023-05-29T04:41:08;99632.81;;;12.36;100.00
24031;BME280;12240;51.142;22.486;2023-05-29T04:43:39;99629.63;;;12.66;100.00
24031;BME280;12240;51.142;22.486;2023-05-29T04:46:08;99625.25;;;12.91;100.00
24031;BME280;12240;51.142;22.486;2023-05-29T04:48:41;99620.53;;;13.27;100.00
24031;BME280;12240;51.142;22.486;2023-05-29T04:51:11;99612.72;;;13.57;100.00
24031;BME280;12240;51.142;22.486;2023-05-29T04:53:40;99607.03;;;13.84;100.00
24031;BME280;12240;51.142;22.486;2023-05-29T04:56:11;99603.53;;;14.00;100.00
24031;BME280;12240;51.142;22.486;2023-05-29T04:58:40;99605.19;;;14.33;100.00
24031;BME280;12240;51.142;22.486;2023-05-29T05:01:09;99602.91;;;14.69;100.00
24031;BME280;12240;51.142;22.486;2023-05-29T05:03:38;99592.50;;;14.82;100.00
24031;BME280;12240;51.142;22.486;2023-05-29T05:06:06;99589.44;;;15.24;100.00
24031;BME280;12240;51.142;22.486;2023-05-29T05:08:37;99585.78;;;15.70;100.00
24031;BME280;12240;51.142;22.486;2023-05-29T05:11:07;99584.94;;;15.92;100.00
24031;BME280;12240;51.142;22.486;2023-05-29T05:13:35;99582.06;;;15.93;100.00
24031;BME280;12240;51.142;22.486;2023-05-29T05:16:03;99589.69;;;16.04;100.00
24031;BME280;12240;51.142;22.486;2023-05-29T05:18:35;99582.13;;;16.22;100.00
24031;BME280;12240;51.142;22.486;2023-05-29T05:21:06;99577.22;;;16.26;100.00
24031;BME280;12240;51.142;22.486;2023-05-29T05:23:37;99580.59;;;16.57;100.00
24031;BME280;12240;51.142;22.486;2023-05-29T05:26:10;99572.25;;;16.67;100.00
24031;BME280;12240;51.142;22.486;2023-05-29T05:28:39;99568.91;;;17.29;100.00
24031;BME280;12240;51.142;22.486;2023-05-29T05:31:07;99559.94;;;17.43;100.00
24031;BME280;12240;51.142;22.486;2023-05-29T05:33:36;99570.84;;;17.57;100.00
24031;BME280;12240;51.142;22.486;2023-05-29T05:36:05;99573.59;;;17.63;100.00
24031;BME280;12240;51.142;22.486;2023-05-29T05:38:35;99565.22;;;17.94;100.00
24031;BME280;12240;51.142;22.486;2023-05-29T05:41:03;99558.88;;;18.08;100.00
24031;BME280;12240;51.142;22.486;2023-05-29T05:43:33;99581.28;;;18.36;100.00
24031;BME280;12240;51.142;22.486;2023-05-29T05:46:18;99564.94;;;18.78;100.00
24031;BME280;12240;51.142;22.486;2023-05-29T05:48:47;99562.56;;;19.03;100.00
24031;BME280;12240;51.142;22.486;2023-05-29T05:51:16;99550.91;;;18.96;100.00
24031;BME280;12240;51.142;22.486;2023-05-29T05:53:44;99560.50;;;18.98;100.00
24031;BME280;12240;51.142;22.486;2023-05-29T05:56:14;99561.91;;;18.94;100.00
24031;BME280;12240;51.142;22.486;2023-05-29T05:58:42;99566.09;;;18.97;100.00
24031;BME280;12240;51.142;22.486;2023-05-29T06:01:12;99560.75;;;19.16;100.00
24031;BME280;12240;51.142;22.486;2023-05-29T06:03:41;99564.63;;;19.41;100.00
24031;BME280;12240;51.142;22.486;2023-05-29T06:06:09;99552.59;;;19.77;100.00
24031;BME280;12240;51.142;22.486;2023-05-29T06:08:40;99567.38;;;20.07;100.00
24031;BME280;12240;51.142;22.486;2023-05-29T06:11:10;99571.34;;;19.91;100.00
24031;BME280;12240;51.142;22.486;2023-05-29T06:13:41;99568.00;;;20.02;100.00
24031;BME280;12240;51.142;22.486;2023-05-29T06:16:16;99568.41;;;20.06;100.00
24031;BME280;12240;51.142;22.486;2023-05-29T06:18:44;99570.53;;;20.17;100.00
24031;BME280;12240;51.142;22.486;2023-05-29T06:21:13;99568.22;;;19.94;100.00
24031;BME280;12240;51.142;22.486;2023-05-29T06:23:49;99562.38;;;20.36;100.00
24031;BME280;12240;51.142;22.486;2023-05-29T06:26:17;99562.38;;;20.49;100.00
24031;BME280;12240;51.142;22.486;2023-05-29T06:28:46;99566.72;;;20.63;100.00
24031;BME280;12240;51.142;22.486;2023-05-29T06:31:14;99552.09;;;20.77;100.00
24031;BME280;12240;51.142;22.486;2023-05-29T06:33:45;99553.72;;;20.98;99.56
24031;BME280;12240;51.142;22.486;2023-05-29T06:36:13;99552.78;;;21.17;100.00
24031;BME280;12240;51.142;22.486;2023-05-29T06:38:47;99555.97;;;21.08;97.29
24031;BME280;12240;51.142;22.486;2023-05-29T06:41:17;99549.06;;;21.12;95.03
24031;BME280;12240;51.142;22.486;2023-05-29T06:43:45;99557.97;;;21.25;94.14
24031;BME280;12240;51.142;22.486;2023-05-29T06:46:14;99564.22;;;21.19;95.79
24031;BME280;12240;51.142;22.486;2023-05-29T06:48:43;99556.84;;;21.39;92.98
24031;BME280;12240;51.142;22.486;2023-05-29T06:51:13;99566.78;;;21.83;93.04
24031;BME280;12240;51.142;22.486;2023-05-29T06:53:41;99562.88;;;22.04;90.72
24031;BME280;12240;51.142;22.486;2023-05-29T06:56:13;99567.00;;;22.55;90.11
24031;BME280;12240;51.142;22.486;2023-05-29T06:58:42;99570.41;;;23.05;87.78
24031;BME280;12240;51.142;22.486;2023-05-29T07:01:10;99555.63;;;23.01;83.95
24031;BME280;12240;51.142;22.486;2023-05-29T07:03:47;99557.97;;;23.34;78.76
24031;BME280;12240;51.142;22.486;2023-05-29T07:06:19;99548.38;;;22.59;76.45
24031;BME280;12240;51.142;22.486;2023-05-29T07:08:49;99552.94;;;22.65;74.75
24031;BME280;12240;51.142;22.486;2023-05-29T07:11:17;99564.94;;;22.51;75.37
24031;BME280;12240;51.142;22.486;2023-05-29T07:13:46;99565.34;;;22.72;75.55
24031;BME280;12240;51.142;22.486;2023-05-29T07:16:15;99567.84;;;22.74;72.72
24031;BME280;12240;51.142;22.486;2023-05-29T07:18:57;99563.09;;;22.87;73.17
24031;BME280;12240;51.142;22.486;2023-05-29T07:21:27;99571.59;;;22.91;72.97
24031;BME280;12240;51.142;22.486;2023-05-29T07:23:55;99568.88;;;23.45;73.58
24031;BME280;12240;51.142;22.486;2023-05-29T07:26:23;99573.19;;;24.05;74.68
24031;BME280;12240;51.142;22.486;2023-05-29T07:28:52;99570.25;;;24.65;72.96
24031;BME280;12240;51.142;22.486;2023-05-29T07:31:21;99553.28;;;24.97;65.21
24031;BME280;12240;51.142;22.486;2023-05-29T07:33:50;99551.56;;;24.57;65.74
24031;BME280;12240;51.142;22.486;2023-05-29T07:36:21;99566.31;;;24.03;67.91
24031;BME280;12240;51.142;22.486;2023-05-29T07:38:51;99561.28;;;24.18;66.24
24031;BME280;12240;51.142;22.486;2023-05-29T07:41:22;99554.41;;;24.62;65.14
24031;BME280;12240;51.142;22.486;2023-05-29T07:43:53;99547.50;;;24.94;64.25
24031;BME280;12240;51.142;22.486;2023-05-29T07:46:24;99553.28;;;23.52;64.38
24031;BME280;12240;51.142;22.486;2023-05-29T07:49:02;99562.41;;;23.58;64.00
24031;BME280;12240;51.142;22.486;2023-05-29T07:51:30;99578.22;;;23.49;67.52
24031;BME280;12240;51.142;22.486;2023-05-29T07:53:59;99568.28;;;23.84;63.47
24031;BME280;12240;51.142;22.486;2023-05-29T07:56:28;99563.72;;;24.08;59.93
24031;BME280;12240;51.142;22.486;2023-05-29T07:58:58;99566.91;;;23.34;59.83
24031;BME280;12240;51.142;22.486;2023-05-29T08:01:27;99572.41;;;24.28;60.15
24031;BME280;12240;51.142;22.486;2023-05-29T08:03:56;99566.13;;;25.25;61.41
24031;BME280;12240;51.142;22.486;2023-05-29T08:06:32;99560.78;;;24.79;59.28
24031;BME280;12240;51.142;22.486;2023-05-29T08:09:02;99571.00;;;23.84;61.49
24031;BME280;12240;51.142;22.486;2023-05-29T08:11:31;99573.38;;;23.92;61.10
24031;BME280;12240;51.142;22.486;2023-05-29T08:13:59;99575.63;;;23.95;62.11
24031;BME280;12240;51.142;22.486;2023-05-29T08:16:28;99576.16;;;24.04;61.80
24031;BME280;12240;51.142;22.486;2023-05-29T08:18:57;99571.91;;;24.66;60.66
24031;BME280;12240;51.142;22.486;2023-05-29T08:21:25;99569.31;;;24.36;60.46
24031;BME280;12240;51.142;22.486;2023-05-29T08:23:54;99576.66;;;24.59;63.36
24031;BME280;12240;51.142;22.486;2023-05-29T08:26:22;99571.84;;;23.96;61.57
24031;BME280;12240;51.142;22.486;2023-05-29T08:28:51;99562.72;;;24.44;60.10
24031;BME280;12240;51.142;22.486;2023-05-29T08:31:19;99565.31;;;24.50;60.01
24031;BME280;12240;51.142;22.486;2023-05-29T08:33:47;99566.72;;;24.18;59.52
24031;BME280;12240;51.142;22.486;2023-05-29T08:36:15;99567.47;;;25.51;59.38
24031;BME280;12240;51.142;22.486;2023-05-29T08:38:44;99553.56;;;25.24;58.24
24031;BME280;12240;51.142;22.486;2023-05-29T08:41:21;99545.22;;;25.42;57.40
24031;BME280;12240;51.142;22.486;2023-05-29T08:43:52;99559.06;;;25.12;59.67
24031;BME280;12240;51.142;22.486;2023-05-29T08:46:20;99563.72;;;24.89;60.20
24031;BME280;12240;51.142;22.486;2023-05-29T08:48:49;99556.94;;;25.03;60.39
24031;BME280;12240;51.142;22.486;2023-05-29T08:51:23;99542.16;;;25.39;57.26
24031;BME280;12240;51.142;22.486;2023-05-29T08:53:57;99555.50;;;25.12;58.91
24031;BME280;12240;51.142;22.486;2023-05-29T08:56:27;99554.84;;;25.45;57.82
24031;BME280;12240;51.142;22.486;2023-05-29T08:59:02;99559.75;;;26.20;57.98
24031;BME280;12240;51.142;22.486;2023-05-29T09:01:35;99555.50;;;25.52;58.93
24031;BME280;12240;51.142;22.486;2023-05-29T09:04:04;99557.50;;;24.54;56.86
24031;BME280;12240;51.142;22.486;2023-05-29T09:06:33;99554.75;;;24.07;57.35
24031;BME280;12240;51.142;22.486;2023-05-29T09:09:01;99563.63;;;24.38;58.05
24031;BME280;12240;51.142;22.486;2023-05-29T09:11:29;99546.53;;;25.00;57.00
24031;BME280;12240;51.142;22.486;2023-05-29T09:13:59;99545.72;;;25.39;56.67
24031;BME280;12240;51.142;22.486;2023-05-29T09:16:27;99562.19;;;25.89;58.24
24031;BME280;12240;51.142;22.486;2023-05-29T09:19:05;99554.59;;;26.07;56.41
24031;BME280;12240;51.142;22.486;2023-05-29T09:21:40;99560.91;;;25.35;57.49
24031;BME280;12240;51.142;22.486;2023-05-29T09:24:08;99558.53;;;24.87;56.85
24031;BME280;12240;51.142;22.486;2023-05-29T09:26:36;99559.56;;;24.98;57.34
24031;BME280;12240;51.142;22.486;2023-05-29T09:29:05;99558.81;;;25.14;57.09
24031;BME280;12240;51.142;22.486;2023-05-29T09:31:38;99554.09;;;25.09;56.02
24031;BME280;12240;51.142;22.486;2023-05-29T09:34:07;99547.63;;;24.99;54.19
24031;BME280;12240;51.142;22.486;2023-05-29T09:36:37;99550.00;;;25.35;53.99
24031;BME280;12240;51.142;22.486;2023-05-29T09:39:06;99547.47;;;25.90;53.73
24031;BME280;12240;51.142;22.486;2023-05-29T09:41:45;99550.44;;;26.55;53.79
24031;BME280;12240;51.142;22.486;2023-05-29T09:44:14;99547.50;;;26.39;53.51
24031;BME280;12240;51.142;22.486;2023-05-29T09:46:43;99552.41;;;26.21;53.42
24031;BME280;12240;51.142;22.486;2023-05-29T09:49:13;99546.03;;;26.15;53.74
24031;BME280;12240;51.142;22.486;2023-05-29T09:51:42;99563.13;;;26.11;56.53
24031;BME280;12240;51.142;22.486;2023-05-29T09:54:18;99551.88;;;26.40;53.59
24031;BME280;12240;51.142;22.486;2023-05-29T09:56:46;99551.63;;;26.25;53.60
24031;BME280;12240;51.142;22.486;2023-05-29T09:59:15;99536.84;;;26.05;53.01
24031;BME280;12240;51.142;22.486;2023-05-29T10:01:49;99545.94;;;27.03;53.55
24031;BME280;12240;51.142;22.486;2023-05-29T10:04:25;99532.41;;;26.54;51.36
24031;BME280;12240;51.142;22.486;2023-05-29T10:06:56;99544.03;;;26.82;53.26
24031;BME280;12240;51.142;22.486;2023-05-29T10:09:26;99541.34;;;27.09;54.76
24031;BME280;12240;51.142;22.486;2023-05-29T10:11:55;99538.59;;;27.52;53.88
24031;BME280;12240;51.142;22.486;2023-05-29T10:14:29;99540.56;;;27.57;53.04
24031;BME280;12240;51.142;22.486;2023-05-29T10:17:02;99546.94;;;27.62;54.67
24031;BME280;12240;51.142;22.486;2023-05-29T10:19:37;99541.50;;;27.19;51.96
24031;BME280;12240;51.142;22.486;2023-05-29T10:22:06;99535.69;;;26.56;50.73
24031;BME280;12240;51.142;22.486;2023-05-29T10:24:37;99535.75;;;26.99;52.05
24031;BME280;12240;51.142;22.486;2023-05-29T10:27:05;99531.84;;;26.90;50.51
24031;BME280;12240;51.142;22.486;2023-05-29T10:29:58;99531.00;;;27.59;51.22
24031;BME280;12240;51.142;22.486;2023-05-29T10:32:36;99534.63;;;27.65;51.04
24031;BME280;12240;51.142;22.486;2023-05-29T10:35:53;99533.53;;;26.58;51.14
24031;BME280;12240;51.142;22.486;2023-05-29T10:38:13;99542.81;;;25.74;54.06
24031;BME280;12240;51.142;22.486;2023-05-29T10:40:44;99543.25;;;25.82;55.45
24031;BME280;12240;51.142;22.486;2023-05-29T10:43:39;99536.69;;;26.28;52.69
24031;BME280;12240;51.142;22.486;2023-05-29T10:46:10;99532.31;;;26.87;53.72
24031;BME280;12240;51.142;22.486;2023-05-29T10:48:40;99540.16;;;26.62;54.22
24031;BME280;12240;51.142;22.486;2023-05-29T10:51:26;99542.75;;;26.68;54.58
24031;BME280;12240;51.142;22.486;2023-05-29T10:53:56;99550.53;;;26.98;55.30
24031;BME280;12240;51.142;22.486;2023-05-29T10:56:29;99532.22;;;26.98;51.15
24031;BME280;12240;51.142;22.486;2023-05-29T10:58:59;99533.59;;;27.44;52.46
24031;BME280;12240;51.142;22.486;2023-05-29T11:01:31;99525.16;;;27.24;50.71
24031;BME280;12240;51.142;22.486;2023-05-29T11:06:50;99522.31;;;28.25;49.77
24031;BME280;12240;51.142;22.486;2023-05-29T11:12:25;99518.06;;;29.78;47.97
24031;BME280;12240;51.142;22.486;2023-05-29T11:15:11;99516.47;;;28.53;48.00
24031;BME280;12240;51.142;22.486;2023-05-29T11:17:46;99527.91;;;27.77;50.08
24031;BME280;12240;51.142;22.486;2023-05-29T11:23:04;99510.88;;;28.38;48.19
24031;BME280;12240;51.142;22.486;2023-05-29T11:25:37;99520.84;;;29.01;49.58
24031;BME280;12240;51.142;22.486;2023-05-29T11:28:08;99509.03;;;28.96;46.92
24031;BME280;12240;51.142;22.486;2023-05-29T11:30:47;99512.47;;;29.38;48.20
24031;BME280;12240;51.142;22.486;2023-05-29T11:33:27;99511.88;;;28.64;48.02
24031;BME280;12240;51.142;22.486;2023-05-29T11:35:59;99515.84;;;30.15;47.74
24031;BME280;12240;51.142;22.486;2023-05-29T11:38:28;99505.94;;;29.64;47.36
24031;BME280;12240;51.142;22.486;2023-05-29T11:40:57;99493.09;;;30.05;46.20
24031;BME280;12240;51.142;22.486;2023-05-29T11:43:26;99506.53;;;29.91;46.21
24031;BME280;12240;51.142;22.486;2023-05-29T11:45:54;99505.94;;;30.44;46.96
24031;BME280;12240;51.142;22.486;2023-05-29T11:48:23;99499.97;;;29.92;47.48
24031;BME280;12240;51.142;22.486;2023-05-29T11:50:53;99505.84;;;30.90;48.46
24031;BME280;12240;51.142;22.486;2023-05-29T11:53:21;99493.31;;;30.48;47.06
24031;BME280;12240;51.142;22.486;2023-05-29T11:55:49;99496.38;;;30.22;47.06
24031;BME280;12240;51.142;22.486;2023-05-29T11:58:17;99490.03;;;30.21;46.36
24031;BME280;12240;51.142;22.486;2023-05-29T12:00:48;99488.28;;;30.75;46.39
24031;BME280;12240;51.142;22.486;2023-05-29T12:03:18;99498.50;;;30.55;47.83
24031;BME280;12240;51.142;22.486;2023-05-29T12:05:48;99478.69;;;30.68;45.86
24031;BME280;12240;51.142;22.486;2023-05-29T12:08:22;99488.13;;;30.42;47.03
24031;BME280;12240;51.142;22.486;2023-05-29T12:10:53;99477.97;;;30.42;46.06
24031;BME280;12240;51.142;22.486;2023-05-29T12:13:22;99469.34;;;30.64;45.89
24031;BME280;12240;51.142;22.486;2023-05-29T12:15:57;99467.78;;;31.12;45.40
24031;BME280;12240;51.142;22.486;2023-05-29T12:18:27;99483.13;;;30.54;47.05
24031;BME280;12240;51.142;22.486;2023-05-29T12:21:02;99467.47;;;30.54;44.16
24031;BME280;12240;51.142;22.486;2023-05-29T12:23:32;99477.41;;;30.05;45.97
24031;BME280;12240;51.142;22.486;2023-05-29T12:26:01;99480.16;;;30.35;45.43
24031;BME280;12240;51.142;22.486;2023-05-29T12:28:29;99470.03;;;29.86;45.01
24031;BME280;12240;51.142;22.486;2023-05-29T12:30:59;99466.84;;;30.72;45.28
24031;BME280;12240;51.142;22.486;2023-05-29T12:33:32;99469.19;;;31.09;45.46
24031;BME280;12240;51.142;22.486;2023-05-29T12:36:12;99464.28;;;29.87;45.14
24031;BME280;12240;51.142;22.486;2023-05-29T12:38:49;99455.16;;;29.51;45.08
24031;BME280;12240;51.142;22.486;2023-05-29T12:41:33;99462.63;;;29.81;45.83
24031;BME280;12240;51.142;22.486;2023-05-29T12:44:04;99458.50;;;29.89;44.62
24031;BME280;12240;51.142;22.486;2023-05-29T12:46:41;99459.06;;;29.86;45.40
24031;BME280;12240;51.142;22.486;2023-05-29T12:49:16;99454.09;;;29.83;45.26
24031;BME280;12240;51.142;22.486;2023-05-29T12:51:45;99446.66;;;30.28;44.50
24031;BME280;12240;51.142;22.486;2023-05-29T12:54:15;99437.00;;;30.36;44.58
24031;BME280;12240;51.142;22.486;2023-05-29T12:56:44;99442.72;;;30.59;44.43
24031;BME280;12240;51.142;22.486;2023-05-29T12:59:14;99437.22;;;30.64;44.00
24031;BME280;12240;51.142;22.486;2023-05-29T13:01:43;99442.38;;;30.76;44.02
24031;BME280;12240;51.142;22.486;2023-05-29T13:04:11;99439.66;;;30.71;44.56
24031;BME280;12240;51.142;22.486;2023-05-29T13:06:40;99433.34;;;31.24;45.69
24031;BME280;12240;51.142;22.486;2023-05-29T13:09:09;99435.53;;;32.23;45.80
24031;BME280;12240;51.142;22.486;2023-05-29T13:11:39;99438.16;;;32.10;45.28
24031;BME280;12240;51.142;22.486;2023-05-29T13:14:07;99419.31;;;30.67;43.29
24031;BME280;12240;51.142;22.486;2023-05-29T13:16:35;99433.63;;;31.23;46.53
24031;BME280;12240;51.142;22.486;2023-05-29T13:19:03;99426.00;;;31.05;43.99
24031;BME280;12240;51.142;22.486;2023-05-29T13:21:33;99413.66;;;30.38;42.66
24031;BME280;12240;51.142;22.486;2023-05-29T13:24:01;99431.59;;;30.90;45.14
24031;BME280;12240;51.142;22.486;2023-05-29T13:26:30;99418.94;;;30.25;44.61